地図

経路データ

SID SEASON NUMBER BASIN SUBBASIN NAME ISO_TIME NATURE LAT LON WMO_WIND WMO_PRES WMO_AGENCY TRACK_TYPE DIST2LAND LANDFALL IFLAG USA_AGENCY USA_ATCF_ID USA_LAT USA_LON USA_RECORD USA_STATUS USA_WIND USA_PRES USA_SSHS USA_R34_NE USA_R34_SE USA_R34_SW USA_R34_NW USA_R50_NE USA_R50_SE USA_R50_SW USA_R50_NW USA_R64_NE USA_R64_SE USA_R64_SW USA_R64_NW USA_POCI USA_ROCI USA_RMW USA_EYE TOKYO_LAT TOKYO_LON TOKYO_GRADE TOKYO_WIND TOKYO_PRES TOKYO_R50_DIR TOKYO_R50_LONG TOKYO_R50_SHORT TOKYO_R30_DIR TOKYO_R30_LONG TOKYO_R30_SHORT TOKYO_LAND CMA_LAT CMA_LON CMA_CAT CMA_WIND CMA_PRES HKO_LAT HKO_LON HKO_CAT HKO_WIND HKO_PRES NEWDELHI_LAT NEWDELHI_LON NEWDELHI_GRADE NEWDELHI_WIND NEWDELHI_PRES NEWDELHI_CI NEWDELHI_DP NEWDELHI_POCI REUNION_LAT REUNION_LON REUNION_TYPE REUNION_WIND REUNION_PRES REUNION_TNUM REUNION_CI REUNION_RMW REUNION_R34_NE REUNION_R34_SE REUNION_R34_SW REUNION_R34_NW REUNION_R50_NE REUNION_R50_SE REUNION_R50_SW REUNION_R50_NW REUNION_R64_NE REUNION_R64_SE REUNION_R64_SW REUNION_R64_NW BOM_LAT BOM_LON BOM_TYPE BOM_WIND BOM_PRES BOM_TNUM BOM_CI BOM_RMW BOM_R34_NE BOM_R34_SE BOM_R34_SW BOM_R34_NW BOM_R50_NE BOM_R50_SE BOM_R50_SW BOM_R50_NW BOM_R64_NE BOM_R64_SE BOM_R64_SW BOM_R64_NW BOM_ROCI BOM_POCI BOM_EYE BOM_POS_METHOD BOM_PRES_METHOD NADI_LAT NADI_LON NADI_CAT NADI_WIND NADI_PRES WELLINGTON_LAT WELLINGTON_LON WELLINGTON_WIND WELLINGTON_PRES DS824_LAT DS824_LON DS824_STAGE DS824_WIND DS824_PRES TD9636_LAT TD9636_LON TD9636_STAGE TD9636_WIND TD9636_PRES TD9635_LAT TD9635_LON TD9635_WIND TD9635_PRES TD9635_ROCI NEUMANN_LAT NEUMANN_LON NEUMANN_CLASS NEUMANN_WIND NEUMANN_PRES MLC_LAT MLC_LON MLC_CLASS MLC_WIND MLC_PRES USA_GUST BOM_GUST BOM_GUST_PER REUNION_GUST REUNION_GUST_PER USA_SEAHGT USA_SEARAD_NE USA_SEARAD_SE USA_SEARAD_SW USA_SEARAD_NW STORM_SPEED STORM_DIR
1895226N27269 1895 23 NA GM NOT_NAMED 1895-08-14 06:00:00 TS 26.8667 -91.0667 35 hurdat_atl main 246 234 O____________O hurdat_atl AL011895 27.2000 -91.3000 TS 35 0 26.2000 -90.6000 TS 35 4 30
1895226N27269 1895 23 NA GM NOT_NAMED 1895-08-14 09:00:00 TS 27.0542 -90.9418 main 223 212 P____________P AL011895 27.4126 -91.1377 TS 37 0 26.3375 -90.5500 TS 37 4 30
1895226N27269 1895 23 NA GM NOT_NAMED 1895-08-14 12:00:00 TS 27.2333 -90.8333 40 hurdat_atl main 212 190 O____________O hurdat_atl AL011895 27.6000 -91.0000 TS 40 0 26.5000 -90.5000 TS 40 4 26
1895226N27269 1895 23 NA GM NOT_NAMED 1895-08-14 15:00:00 TS 27.4000 -90.7499 main 190 167 P____________P AL011895 27.7500 -90.8999 TS 42 0 26.7000 -90.4500 TS 42 4 24
1895226N27269 1895 23 NA GM NOT_NAMED 1895-08-14 18:00:00 TS 27.5667 -90.6667 45 hurdat_atl main 167 156 O____________O hurdat_atl AL011895 27.9000 -90.8000 TS 45 0 26.9000 -90.4000 TS 45 4 26
1895226N27269 1895 23 NA GM NOT_NAMED 1895-08-14 21:00:00 TS 27.7525 -90.5525 main 145 134 P____________P AL011895 28.1000 -90.6501 TS 45 0 27.0575 -90.3575 TS 45 4 29
1895226N27269 1895 23 NA GM NOT_NAMED 1895-08-15 00:00:00 TS 27.9333 -90.4333 45 hurdat_atl main 135 112 O____________O hurdat_atl AL011895 28.3000 -90.5000 TS 45 0 27.2000 -90.3000 TS 45 4 29
1895226N27269 1895 23 NA GM NOT_NAMED 1895-08-15 03:00:00 TS 28.0883 -90.3383 main 112 100 P____________P AL011895 28.4575 -90.3999 TS 47 0 27.3500 -90.2150 TS 45 3 30
1895226N27269 1895 23 NA GM NOT_NAMED 1895-08-15 06:00:00 TS 28.2333 -90.2333 50 hurdat_atl main 100 78 O____________O hurdat_atl AL011895 28.6000 -90.3000 TS 50 0 27.5000 -90.1000 TS 45 4 37
1895226N27269 1895 23 NA GM NOT_NAMED 1895-08-15 09:00:00 TS 28.3758 -90.0908 main 78 67 P____________P AL011895 28.7500 -90.1575 TS 50 0 27.6275 -89.9574 TS 45 4 41
1895226N27269 1895 23 NA GM NOT_NAMED 1895-08-15 12:00:00 TS 28.5333 -89.9333 50 hurdat_atl main 69 53 O____________O hurdat_atl AL011895 28.9000 -90.0000 TS 50 0 27.8000 -89.8000 TS 45 4 38
1895226N27269 1895 23 NA GM NOT_NAMED 1895-08-15 15:00:00 TS 28.7013 -89.8077 main 53 29 P____________P AL011895 29.0094 -89.8903 TS 50 0 28.0850 -89.6426 TS 45 5 33
1895226N27269 1895 23 NA GM NOT_NAMED 1895-08-15 18:00:00 TS 28.9333 -89.6333 50 hurdat_atl main 29 22 O____________O hurdat_atl AL011895 29.2000 -89.7000 TS 50 0 28.4000 -89.5000 TS 45 6 34
1895226N27269 1895 23 NA GM NOT_NAMED 1895-08-15 19:00:00 TS 29.0288 -89.5554 50 hurdat_atl main 22 9 O____________P hurdat_atl AL011895 29.3000 -89.6000 L TS 50 0 28.4864 -89.4661 TS 45 6 31
1895226N27269 1895 23 NA GM NOT_NAMED 1895-08-15 21:00:00 TS 29.1836 -89.4555 main 9 0 P____________P AL011895 29.4505 -89.4796 TS 50 0 28.6499 -89.4072 TS 45 5 26
1895226N27269 1895 23 NA GM NOT_NAMED 1895-08-16 00:00:00 TS 29.3667 -89.3667 50 hurdat_atl main 11 11 O____________O hurdat_atl AL011895 29.6000 -89.4000 TS 50 0 28.9000 -89.3000 TS 45 4 29
1895226N27269 1895 23 NA GM NOT_NAMED 1895-08-16 03:00:00 TS 29.5700 -89.2083 main 22 22 P____________P AL011895 29.7549 -89.2549 TS 47 0 29.2000 -89.1151 TS 45 5 36
1895226N27269 1895 23 NA GM NOT_NAMED 1895-08-16 06:00:00 TS 29.7667 -89.0333 45 hurdat_atl main 28 28 O____________O hurdat_atl AL011895 29.9000 -89.1000 TS 45 0 29.5000 -88.9000 TS 45 5 39
1895226N27269 1895 23 NA GM NOT_NAMED 1895-08-16 09:00:00 TS 29.9720 -88.8322 main 34 22 P____________P AL011895 30.0905 -88.9096 TS 45 0 29.7350 -88.6775 TS 45 5 38
1895226N27269 1895 23 NA GM NOT_NAMED 1895-08-16 12:00:00 TS 30.1333 -88.7000 45 hurdat_atl main 22 11 O____________O hurdat_atl AL011895 30.2000 -88.8000 TS 45 0 30.0000 -88.5000 TS 45 4 32
1895226N27269 1895 23 NA GM NOT_NAMED 1895-08-16 13:00:00 TS 30.1729 -88.6887 45 hurdat_atl main 11 0 O____________P hurdat_atl AL011895 30.2000 -88.8000 L TS 45 0 30.1188 -88.4661 TS 44 4 13
1895226N27269 1895 23 NA GM NOT_NAMED 1895-08-16 15:00:00 TS 30.3478 -88.6404 main 9 0 P____________P AL011895 30.3292 -88.7470 TS 42 0 30.3850 -88.4273 TS 42 7 13
1895226N27269 1895 23 NA NA NOT_NAMED 1895-08-16 18:00:00 TS 30.7333 -88.5333 40 hurdat_atl main 0 0 O____________O hurdat_atl AL011895 30.7000 -88.6000 TS 40 0 30.8000 -88.4000 TS 40 7 14
1895226N27269 1895 23 NA NA NOT_NAMED 1895-08-16 21:00:00 TS 31.0402 -88.4477 main 0 0 P____________P AL011895 30.9854 -88.4966 TS 37 0 31.1500 -88.3499 TS 37 7 13
1895226N27269 1895 23 NA NA NOT_NAMED 1895-08-17 00:00:00 TS 31.3667 -88.3667 35 hurdat_atl main 0 0 O____________O hurdat_atl AL011895 31.3000 -88.4000 TS 35 0 31.5000 -88.3000 TS 35 7 11
1895226N27269 1895 23 NA NA NOT_NAMED 1895-08-17 03:00:00 TS 31.7517 -88.2784 main 0 0 P____________P AL011895 31.6775 -88.2925 TS 32 -1 31.9000 -88.2500 TS 32 8 10
1895226N27269 1895 23 NA NA NOT_NAMED 1895-08-17 06:00:00 TS 32.1667 -88.2000 30 hurdat_atl main 0 0 O____________O hurdat_atl AL011895 32.1000 -88.2000 TD 30 -1 32.3000 -88.2000 TD 30 8 7
1895226N27269 1895 23 NA NA NOT_NAMED 1895-08-17 09:00:00 TS 32.5833 -88.1523 main 0 0 P____________P AL011895 32.5500 -88.1498 TD 27 -1 32.6500 -88.1573 TD 27 8 6
1895226N27269 1895 23 NA NA NOT_NAMED 1895-08-17 12:00:00 TS 33.0000 -88.1000 25 hurdat_atl main 0 0 O____________O hurdat_atl AL011895 33.0000 -88.1000 TD 25 -1 33.0000 -88.1000 TD 25 8 8
1895226N27269 1895 23 NA NA NOT_NAMED 1895-08-17 15:00:00 TS 33.4042 -88.0120 main 0 0 P____________P AL011895 33.4125 -88.0128 TD 25 -1 33.3875 -88.0103 TD 25 8 12
1895226N27269 1895 23 NA NA NOT_NAMED 1895-08-17 18:00:00 TS 33.8000 -87.9000 25 hurdat_atl main 0 O____________O hurdat_atl AL011895 33.8000 -87.9000 TD 25 -1 33.8000 -87.9000 TD 25 8 14

IBTrACS Databaseについて

本データベースは、米国NOAAが公開する1842年以降の世界の熱帯低気圧のベストトラックデータアーカイブInternational Best Track Archive for Climate Stewardship (IBTrACS)を、ウェブで閲覧しやすい形式に変換したものです。

最終更新日:2021-10-25